Time;durP1;ratioP1;P1;durP2;ratioP2;P2;SDS_P1;SDS_P2;PMS_P1;PMS_P2;Temp;Humidity;BMP_temperature;BMP_pressure;BME280_temperature;BME280_humidity;BME280_pressure;Samples;Min_cycle;Max_cycle;Signal;HPM_P1;HPM_P2
2022/02/09 00:02:20;;;;;;;15.83;14.23;;;;;;;;;;4972022;28;20232;-73
2022/02/09 00:07:39;;;;;;;17.33;14.33;;;;;;;;;;4960938;28;20238;-73
2022/02/09 00:10:05;;;;;;;16.50;14.90;;;;;;;;;;4969049;28;20308;-72
2022/02/09 00:12:44;;;;;;;16.87;15.00;;;;;;;;;;4972505;28;20365;-73
2022/02/09 00:17:45;;;;;;;18.33;16.50;;;;;;;;;;4972636;28;20229;-72
2022/02/09 00:36:06;;;;;;;19.40;17.30;;;;;;;;;;4953688;28;20230;-72
2022/02/09 01:12:11;;;;;;;32.00;21.67;;;;;;;;;;4953197;28;20246;-73
2022/02/09 01:33:10;;;;;;;27.87;20.73;;;;;;;;;;4971382;28;20225;-73
2022/02/09 01:39:44;;;;;;;26.73;18.70;;;;;;;;;;4954383;28;20363;-73
2022/02/09 01:43:22;;;;;;;27.90;19.33;;;;;;;;;;4971592;28;20237;-72
2022/02/09 01:55:55;;;;;;;25.90;18.40;;;;;;;;;;4957511;28;20218;-73
2022/02/09 01:58:23;;;;;;;24.67;17.37;;;;;;;;;;4954964;28;20218;-74
2022/02/09 02:00:51;;;;;;;21.17;17.27;;;;;;;;;;4971376;28;20730;-72
2022/02/09 02:03:17;;;;;;;21.83;16.77;;;;;;;;;;4971313;28;20230;-72
2022/02/09 02:05:45;;;;;;;21.90;16.03;;;;;;;;;;4970197;28;20249;-71
2022/02/09 02:08:13;;;;;;;21.10;16.47;;;;;;;;;;4962270;28;20276;-72
2022/02/09 02:11:06;;;;;;;20.23;16.40;;;;;;;;;;4956288;28;20218;-72
2022/02/09 02:14:00;;;;;;;21.43;15.63;;;;;;;;;;4970358;28;20229;-72
2022/02/09 02:19:03;;;;;;;17.43;14.27;;;;;;;;;;4971055;28;20712;-74
2022/02/09 02:21:44;;;;;;;18.07;14.90;;;;;;;;;;4971023;28;20664;-72
2022/02/09 02:38:13;;;;;;;16.40;11.57;;;;;;;;;;4973033;28;20238;-72
2022/02/09 03:08:22;;;;;;;13.23;9.50;;;;;;;;;;4968465;28;20230;-73
2022/02/09 03:16:02;;;;;;;11.80;9.23;;;;;;;;;;4973964;28;20305;-72
2022/02/09 03:23:59;;;;;;;16.07;10.70;;;;;;;;;;4964974;28;20222;-71
2022/02/09 03:45:55;;;;;;;17.43;11.90;;;;;;;;;;4972595;28;20310;-73
2022/02/09 03:48:30;;;;;;;18.53;12.33;;;;;;;;;;4944294;28;20238;-72
2022/02/09 03:56:27;;;;;;;16.90;12.50;;;;;;;;;;4962251;28;20715;-71
2022/02/09 03:58:57;;;;;;;16.13;13.03;;;;;;;;;;4958357;28;20629;-73
2022/02/09 04:01:29;;;;;;;19.10;13.20;;;;;;;;;;4972242;28;20234;-72
2022/02/09 04:03:55;;;;;;;20.40;13.70;;;;;;;;;;4973928;28;20222;-74
2022/02/09 04:06:20;;;;;;;18.83;13.53;;;;;;;;;;4970085;28;20293;-72
2022/02/09 04:08:57;;;;;;;17.73;13.87;;;;;;;;;;4954407;28;20226;-72
2022/02/09 04:14:06;;;;;;;19.90;13.67;;;;;;;;;;4978468;28;20281;-72
2022/02/09 04:19:09;;;;;;;20.67;14.20;;;;;;;;;;4974208;28;20651;-73
2022/02/09 04:44:24;;;;;;;16.30;12.87;;;;;;;;;;4956578;28;20617;-73
2022/02/09 04:57:31;;;;;;;17.07;12.23;;;;;;;;;;4970724;28;20221;-73
2022/02/09 05:00:16;;;;;;;15.20;12.07;;;;;;;;;;4973463;28;20309;-71
2022/02/09 05:29:23;;;;;;;15.37;13.50;;;;;;;;;;4961477;28;20222;-72
2022/02/09 05:31:50;;;;;;;16.77;11.73;;;;;;;;;;4954407;28;20771;-72
2022/02/09 05:34:18;;;;;;;15.43;11.73;;;;;;;;;;4968056;28;20316;-72
2022/02/09 05:36:46;;;;;;;13.27;11.23;;;;;;;;;;4964101;28;20305;-74
2022/02/09 05:39:14;;;;;;;14.17;11.47;;;;;;;;;;4927296;28;20222;-72
2022/02/09 05:41:46;;;;;;;12.43;10.67;;;;;;;;;;4971098;28;20228;-72
2022/02/09 05:44:13;;;;;;;13.17;11.33;;;;;;;;;;4971972;28;20253;-72
2022/02/09 05:51:55;;;;;;;13.13;11.70;;;;;;;;;;4958847;28;20226;-73
2022/02/09 05:59:36;;;;;;;12.87;11.23;;;;;;;;;;4971338;28;20226;-72
2022/02/09 06:02:05;;;;;;;11.90;10.67;;;;;;;;;;4955196;28;20240;-74
2022/02/09 06:04:30;;;;;;;13.93;11.37;;;;;;;;;;4971313;28;20226;-72
2022/02/09 06:06:57;;;;;;;13.00;11.43;;;;;;;;;;4979302;28;20783;-73
2022/02/09 06:09:22;;;;;;;14.37;11.03;;;;;;;;;;4969633;28;20273;-73
2022/02/09 06:12:05;;;;;;;11.80;10.40;;;;;;;;;;4954758;28;20234;-73
2022/02/09 06:19:48;;;;;;;12.57;10.77;;;;;;;;;;4971314;28;20222;-72
2022/02/09 06:22:18;;;;;;;13.13;11.73;;;;;;;;;;4971611;28;20229;-72
2022/02/09 06:24:44;;;;;;;13.13;10.73;;;;;;;;;;4972481;28;20360;-74
2022/02/09 06:27:10;;;;;;;13.03;10.40;;;;;;;;;;4937578;28;20226;-73
2022/02/09 06:29:45;;;;;;;11.87;10.53;;;;;;;;;;4963880;28;20233;-71
2022/02/09 06:32:12;;;;;;;11.13;9.97;;;;;;;;;;4954415;28;20225;-72
2022/02/09 06:34:38;;;;;;;12.63;10.27;;;;;;;;;;4953894;28;20245;-72
2022/02/09 06:39:45;;;;;;;11.33;9.07;;;;;;;;;;4953108;28;20233;-74
2022/02/09 06:42:11;;;;;;;10.70;9.23;;;;;;;;;;4954450;28;20254;-72
2022/02/09 06:44:39;;;;;;;12.43;8.87;;;;;;;;;;4970695;28;20242;-72
2022/02/09 06:47:06;;;;;;;10.70;8.80;;;;;;;;;;4969776;28;20234;-72
2022/02/09 06:49:33;;;;;;;10.87;8.20;;;;;;;;;;4970845;28;20257;-73
2022/02/09 06:52:01;;;;;;;11.10;8.10;;;;;;;;;;4954268;28;20559;-73
2022/02/09 06:54:32;;;;;;;9.40;8.17;;;;;;;;;;4971043;28;20218;-72
2022/02/09 06:57:11;;;;;;;11.87;7.87;;;;;;;;;;4956457;28;20228;-73
2022/02/09 06:59:41;;;;;;;9.80;8.40;;;;;;;;;;4972189;28;20708;-73
2022/02/09 07:02:07;;;;;;;9.53;7.97;;;;;;;;;;4966999;28;20301;-73
2022/02/09 07:04:35;;;;;;;9.07;7.60;;;;;;;;;;4951051;28;20227;-73
2022/02/09 07:07:01;;;;;;;8.07;7.03;;;;;;;;;;4948989;28;20230;-72
2022/02/09 07:09:30;;;;;;;10.70;7.33;;;;;;;;;;4970172;28;20309;-71
2022/02/09 07:11:56;;;;;;;9.10;6.80;;;;;;;;;;4970936;28;20237;-72
2022/02/09 07:14:27;;;;;;;8.77;7.00;;;;;;;;;;4942006;28;20621;-72
2022/02/09 07:16:53;;;;;;;8.23;6.27;;;;;;;;;;4974553;28;20234;-73
2022/02/09 07:19:21;;;;;;;10.97;6.30;;;;;;;;;;4958653;28;20647;-71
2022/02/09 07:21:52;;;;;;;6.67;5.77;;;;;;;;;;4973994;28;20230;-72
2022/02/09 07:24:20;;;;;;;7.17;6.27;;;;;;;;;;4974641;28;20249;-73
2022/02/09 07:29:12;;;;;;;7.73;6.07;;;;;;;;;;4953282;28;20235;-72
2022/02/09 07:31:37;;;;;;;6.23;5.63;;;;;;;;;;4971848;28;20230;-72
2022/02/09 07:34:03;;;;;;;6.83;5.53;;;;;;;;;;4973642;28;20810;-73
2022/02/09 07:36:39;;;;;;;7.30;5.40;;;;;;;;;;4972207;28;20313;-73
2022/02/09 07:39:09;;;;;;;6.20;5.50;;;;;;;;;;4965602;28;20222;-73
2022/02/09 07:41:36;;;;;;;7.77;5.20;;;;;;;;;;4987588;28;20234;-74
2022/02/09 07:44:15;;;;;;;6.37;4.63;;;;;;;;;;4970649;28;20218;-73
2022/02/09 07:47:07;;;;;;;6.00;4.60;;;;;;;;;;4974497;28;20292;-72
2022/02/09 07:50:14;;;;;;;5.83;4.37;;;;;;;;;;4973330;28;20229;-72
2022/02/09 07:52:26;;;;;;;7.47;4.57;;;;;;;;;;4961669;28;20222;-72
2022/02/09 07:54:54;;;;;;;5.20;4.70;;;;;;;;;;4974432;28;20226;-72
2022/02/09 07:57:23;;;;;;;5.03;4.53;;;;;;;;;;4948393;28;20296;-74
2022/02/09 07:59:50;;;;;;;6.90;4.63;;;;;;;;;;4989100;28;20222;-73
2022/02/09 08:02:17;;;;;;;7.00;4.33;;;;;;;;;;4971888;28;20305;-72
2022/02/09 08:04:44;;;;;;;5.20;4.13;;;;;;;;;;4973831;28;20230;-72
2022/02/09 08:07:15;;;;;;;5.20;4.27;;;;;;;;;;4964568;28;20234;-74
2022/02/09 08:09:43;;;;;;;5.23;4.00;;;;;;;;;;4970114;28;20285;-72
2022/02/09 08:28:33;;;;;;;4.80;4.30;;;;;;;;;;4957272;28;20615;-73
2022/02/09 08:33:43;;;;;;;5.00;4.43;;;;;;;;;;4955753;28;20222;-73
2022/02/09 08:36:09;;;;;;;6.03;4.60;;;;;;;;;;4939344;28;20730;-72
2022/02/09 08:38:35;;;;;;;5.27;4.77;;;;;;;;;;4969739;28;20233;-73
2022/02/09 08:41:06;;;;;;;4.97;4.57;;;;;;;;;;4963732;28;20730;-73
2022/02/09 08:43:34;;;;;;;5.87;5.00;;;;;;;;;;4971301;28;20218;-73
2022/02/09 08:45:59;;;;;;;7.00;5.10;;;;;;;;;;4973045;28;20240;-73
2022/02/09 08:48:29;;;;;;;7.43;5.30;;;;;;;;;;4952158;28;20740;-73
2022/02/09 08:50:55;;;;;;;5.33;4.83;;;;;;;;;;4953205;28;20227;-72
2022/02/09 08:53:22;;;;;;;5.60;5.10;;;;;;;;;;4965262;28;20226;-74
2022/02/09 08:55:55;;;;;;;6.97;5.17;;;;;;;;;;4938450;28;20218;-72
2022/02/09 08:58:22;;;;;;;6.00;5.40;;;;;;;;;;4971549;28;20222;-73
2022/02/09 09:00:49;;;;;;;5.63;4.93;;;;;;;;;;4940711;28;20230;-74
2022/02/09 09:03:25;;;;;;;6.57;5.30;;;;;;;;;;4936415;28;20223;-73
2022/02/09 09:05:58;;;;;;;6.03;5.50;;;;;;;;;;4950653;28;20222;-74
2022/02/09 09:08:58;;;;;;;5.67;5.00;;;;;;;;;;4956549;28;20752;-73
2022/02/09 10:05:35;;;;;;;4.73;4.33;;;;;;;;;;4940207;28;20232;-73
2022/02/09 10:34:18;;;;;;;4.63;4.00;;;;;;;;;;4971667;28;20676;-73
2022/02/09 10:37:00;;;;;;;4.33;3.93;;;;;;;;;;4965041;28;20233;-73
2022/02/09 10:39:44;;;;;;;4.23;3.83;;;;;;;;;;4943944;28;20229;-74
2022/02/09 10:42:15;;;;;;;3.57;3.20;;;;;;;;;;4970973;28;20226;-72
2022/02/09 10:44:52;;;;;;;4.10;3.80;;;;;;;;;;4974337;28;20229;-74
2022/02/09 10:47:19;;;;;;;3.73;3.43;;;;;;;;;;4957760;28;20228;-73
2022/02/09 10:50:14;;;;;;;3.87;3.57;;;;;;;;;;4959341;28;20230;-73
2022/02/09 10:52:49;;;;;;;3.70;3.40;;;;;;;;;;4962552;28;20226;-74
2022/02/09 10:55:34;;;;;;;3.50;2.90;;;;;;;;;;4968578;28;20229;-73
2022/02/09 10:58:02;;;;;;;4.47;3.33;;;;;;;;;;4985759;28;20268;-74
2022/02/09 11:00:30;;;;;;;3.37;3.13;;;;;;;;;;4979673;28;20238;-72
2022/02/09 11:02:56;;;;;;;3.57;3.27;;;;;;;;;;4943624;28;20234;-73
2022/02/09 11:05:21;;;;;;;3.57;3.20;;;;;;;;;;4967939;28;20603;-72
2022/02/09 11:07:50;;;;;;;3.20;2.90;;;;;;;;;;4964454;28;20806;-73
2022/02/09 11:10:18;;;;;;;3.53;3.23;;;;;;;;;;4966188;28;20727;-73
2022/02/09 11:12:46;;;;;;;3.43;3.13;;;;;;;;;;4957885;28;20273;-74
2022/02/09 11:15:17;;;;;;;3.57;3.27;;;;;;;;;;4970805;28;20214;-73
2022/02/09 11:17:46;;;;;;;3.43;3.20;;;;;;;;;;4923905;29;20242;-72
2022/02/09 11:20:13;;;;;;;4.27;3.47;;;;;;;;;;4947479;28;20249;-72
2022/02/09 11:22:46;;;;;;;4.00;3.60;;;;;;;;;;4973427;28;20723;-72
2022/02/09 11:25:27;;;;;;;3.93;3.63;;;;;;;;;;4955054;28;20211;-73
2022/02/09 11:28:29;;;;;;;4.00;3.60;;;;;;;;;;4971045;28;20227;-74
2022/02/09 11:31:26;;;;;;;4.00;3.67;;;;;;;;;;4973607;28;20812;-73
2022/02/09 11:33:55;;;;;;;4.07;3.77;;;;;;;;;;4974257;28;20222;-71
2022/02/09 11:39:01;;;;;;;4.67;4.10;;;;;;;;;;4954667;28;20233;-72
2022/02/09 11:41:50;;;;;;;4.53;4.13;;;;;;;;;;4973835;28;20224;-72
2022/02/09 11:44:47;;;;;;;4.90;4.40;;;;;;;;;;4960631;28;20230;-74
2022/02/09 11:47:37;;;;;;;4.90;3.80;;;;;;;;;;4975023;28;20238;-73
2022/02/09 11:50:59;;;;;;;4.17;3.70;;;;;;;;;;4943254;28;20577;-72
2022/02/09 12:09:41;;;;;;;4.70;4.30;;;;;;;;;;4933542;29;20239;-72
2022/02/09 12:12:13;;;;;;;5.87;4.90;;;;;;;;;;4970882;28;20242;-72
2022/02/09 12:20:18;;;;;;;5.10;4.60;;;;;;;;;;4958611;28;20226;-73
2022/02/09 12:23:01;;;;;;;4.47;4.13;;;;;;;;;;4924885;29;20334;-74
2022/02/09 12:25:42;;;;;;;4.50;4.10;;;;;;;;;;4945733;28;20704;-71
2022/02/09 12:28:16;;;;;;;5.00;4.50;;;;;;;;;;4962428;28;20597;-73
2022/02/09 12:30:45;;;;;;;5.23;4.00;;;;;;;;;;4931432;28;20225;-72
2022/02/09 12:33:19;;;;;;;4.37;3.97;;;;;;;;;;4972045;28;20233;-73
2022/02/09 12:35:47;;;;;;;4.37;3.90;;;;;;;;;;4953563;28;20634;-72
2022/02/09 12:38:13;;;;;;;4.20;3.80;;;;;;;;;;4955544;28;20610;-73
2022/02/09 12:40:41;;;;;;;4.50;3.93;;;;;;;;;;4955639;28;20218;-74
2022/02/09 12:43:12;;;;;;;4.53;4.13;;;;;;;;;;4969970;28;20701;-72
2022/02/09 12:45:40;;;;;;;4.57;4.00;;;;;;;;;;4972277;28;20234;-72
2022/02/09 12:48:11;;;;;;;4.17;3.73;;;;;;;;;;4971075;28;20233;-72
2022/02/09 12:50:40;;;;;;;4.50;3.70;;;;;;;;;;4971793;28;20233;-73
2022/02/09 12:53:07;;;;;;;6.30;4.37;;;;;;;;;;4970995;28;20662;-72
2022/02/09 12:55:36;;;;;;;4.40;4.03;;;;;;;;;;4972201;28;20308;-73
2022/02/09 12:58:09;;;;;;;5.23;4.30;;;;;;;;;;4951089;28;20242;-73
2022/02/09 13:00:43;;;;;;;4.00;3.60;;;;;;;;;;4952051;28;20225;-73
2022/02/09 13:03:13;;;;;;;4.33;4.03;;;;;;;;;;4971022;28;20225;-74
2022/02/09 13:05:49;;;;;;;4.03;3.73;;;;;;;;;;4945818;28;20715;-74
2022/02/09 13:08:41;;;;;;;3.80;3.50;;;;;;;;;;4945557;28;20234;-74
2022/02/09 13:11:18;;;;;;;4.30;3.90;;;;;;;;;;4970407;28;20257;-73
2022/02/09 13:13:51;;;;;;;4.33;3.93;;;;;;;;;;4957370;28;20229;-72
2022/02/09 13:16:43;;;;;;;4.80;4.30;;;;;;;;;;4957159;28;20245;-72
2022/02/09 14:07:03;;;;;;;5.30;4.87;;;;;;;;;;4948397;28;20348;-72
2022/02/09 14:53:02;;;;;;;4.93;4.53;;;;;;;;;;4975476;28;20230;-73
2022/02/09 14:55:47;;;;;;;5.30;4.80;;;;;;;;;;4975697;28;20758;-73
2022/02/09 14:58:22;;;;;;;6.13;5.57;;;;;;;;;;4948290;28;20221;-72
2022/02/09 15:09:08;;;;;;;7.97;7.17;;;;;;;;;;4959684;28;20304;-73
2022/02/09 15:16:34;;;;;;;7.60;6.90;;;;;;;;;;4958533;28;20230;-73
2022/02/09 15:24:27;;;;;;;7.67;6.97;;;;;;;;;;4958202;28;20628;-73
2022/02/09 15:26:55;;;;;;;7.93;6.73;;;;;;;;;;4973089;28;20313;-73
2022/02/09 15:29:22;;;;;;;8.30;7.47;;;;;;;;;;4973924;28;20210;-73
2022/02/09 15:31:54;;;;;;;8.53;7.63;;;;;;;;;;4975003;28;20309;-72
2022/02/09 15:34:34;;;;;;;8.80;7.90;;;;;;;;;;4973902;28;20245;-73
2022/02/09 15:37:23;;;;;;;8.60;7.80;;;;;;;;;;4965413;28;20248;-73
2022/02/09 15:39:53;;;;;;;7.97;7.27;;;;;;;;;;4965822;28;20241;-73
2022/02/09 16:22:34;;;;;;;11.90;10.77;;;;;;;;;;4956174;28;20716;-71
2022/02/09 16:25:20;;;;;;;12.37;11.07;;;;;;;;;;4972351;28;20726;-72
2022/02/09 16:38:37;;;;;;;15.30;13.20;;;;;;;;;;4964336;28;20296;-74
2022/02/09 16:46:33;;;;;;;14.23;12.83;;;;;;;;;;4958576;28;20233;-72
2022/02/09 16:49:08;;;;;;;15.20;13.70;;;;;;;;;;4953285;28;20737;-73
2022/02/09 16:51:49;;;;;;;15.17;13.53;;;;;;;;;;4968655;28;20396;-73
2022/02/09 16:54:33;;;;;;;16.67;14.83;;;;;;;;;;4971308;28;20682;-72
2022/02/09 16:57:07;;;;;;;16.10;14.57;;;;;;;;;;4960149;28;20225;-73
2022/02/09 17:18:58;;;;;;;17.03;15.33;;;;;;;;;;4958286;28;20234;-73
2022/02/09 17:21:27;;;;;;;18.83;16.97;;;;;;;;;;4949957;28;20240;-73
2022/02/09 17:23:57;;;;;;;18.03;16.23;;;;;;;;;;4971625;28;20226;-73
2022/02/09 17:26:24;;;;;;;18.03;16.17;;;;;;;;;;4956002;28;20218;-73
2022/02/09 17:28:58;;;;;;;19.30;17.30;;;;;;;;;;4939793;28;20438;-73
2022/02/09 17:31:36;;;;;;;17.97;16.07;;;;;;;;;;4972655;28;20397;-72
2022/02/09 17:53:23;;;;;;;18.20;16.30;;;;;;;;;;4939506;28;20320;-73
2022/02/09 17:53:26;;;;;;;19.80;17.33;;;;;;;;;;4973814;28;20734;-76
2022/02/09 17:58:50;;;;;;;20.83;18.63;;;;;;;;;;4957427;28;20221;-75
2022/02/09 18:01:17;;;;;;;19.30;17.37;;;;;;;;;;4958252;28;20253;-76
2022/02/09 18:03:43;;;;;;;20.20;18.17;;;;;;;;;;4971392;28;20234;-76
2022/02/09 18:43:48;;;;;;;23.87;20.43;;;;;;;;;;4967122;28;20226;-72
2022/02/09 19:05:11;;;;;;;25.03;21.67;;;;;;;;;;4976891;28;20277;-73
2022/02/09 19:08:37;;;;;;;23.60;20.27;;;;;;;;;;4976663;28;20293;-74
2022/02/09 19:27:01;;;;;;;22.53;19.10;;;;;;;;;;4960745;28;20309;-73
2022/02/09 19:44:08;;;;;;;17.93;13.77;;;;;;;;;;4973524;28;20228;-74
2022/02/09 19:48:38;;;;;;;17.97;13.83;;;;;;;;;;4971287;28;20222;-74
2022/02/09 19:51:38;;;;;;;13.33;11.27;;;;;;;;;;4975511;28;20225;-74
2022/02/09 19:56:23;;;;;;;13.40;11.67;;;;;;;;;;4958385;28;20222;-74
2022/02/09 19:59:02;;;;;;;14.60;11.40;;;;;;;;;;4958654;28;20234;-74
2022/02/09 20:01:34;;;;;;;13.43;11.27;;;;;;;;;;4935141;29;20241;-73
2022/02/09 20:04:00;;;;;;;15.30;11.43;;;;;;;;;;4948732;28;20218;-72
2022/02/09 20:06:34;;;;;;;12.57;10.07;;;;;;;;;;4969237;28;20314;-72
2022/02/09 20:09:03;;;;;;;12.20;9.67;;;;;;;;;;4956614;28;20882;-73
2022/02/09 20:11:28;;;;;;;11.13;9.43;;;;;;;;;;4957208;28;20234;-72
2022/02/09 20:13:54;;;;;;;11.53;10.03;;;;;;;;;;4956898;28;20664;-73
2022/02/09 20:16:22;;;;;;;13.53;10.00;;;;;;;;;;4972966;28;20233;-73
2022/02/09 20:18:53;;;;;;;10.77;9.37;;;;;;;;;;4973776;28;20218;-73
2022/02/09 20:21:25;;;;;;;13.20;10.70;;;;;;;;;;4963989;28;20230;-72
2022/02/09 20:23:56;;;;;;;14.90;10.33;;;;;;;;;;4950116;29;20239;-73
2022/02/09 20:26:22;;;;;;;13.40;9.93;;;;;;;;;;4991854;28;20236;-72
2022/02/09 20:28:57;;;;;;;13.17;10.63;;;;;;;;;;4982009;28;20226;-72
2022/02/09 20:31:32;;;;;;;14.43;10.83;;;;;;;;;;4942681;28;20225;-73
2022/02/09 20:34:11;;;;;;;14.53;11.57;;;;;;;;;;4974523;28;20929;-74
2022/02/09 20:36:42;;;;;;;12.30;9.53;;;;;;;;;;4961620;28;20246;-74
2022/02/09 20:39:12;;;;;;;13.13;10.23;;;;;;;;;;4972150;28;20628;-73
2022/02/09 20:41:39;;;;;;;13.83;10.53;;;;;;;;;;4957866;28;20240;-74
2022/02/09 20:46:32;;;;;;;12.27;9.90;;;;;;;;;;4938203;28;20305;-74
2022/02/09 20:49:02;;;;;;;14.90;10.87;;;;;;;;;;4972572;28;20218;-74
2022/02/09 20:51:28;;;;;;;14.43;10.90;;;;;;;;;;4971505;28;20716;-75
2022/02/09 20:54:00;;;;;;;15.40;12.07;;;;;;;;;;4980606;28;20342;-74
2022/02/09 20:56:33;;;;;;;14.23;11.57;;;;;;;;;;4974267;28;20297;-74
2022/02/09 20:59:04;;;;;;;14.30;11.17;;;;;;;;;;4970667;28;20595;-73
2022/02/09 21:01:54;;;;;;;18.63;13.77;;;;;;;;;;4955537;28;20677;-73
2022/02/09 21:04:21;;;;;;;18.70;14.10;;;;;;;;;;4959367;28;20234;-75
2022/02/09 21:15:17;;;;;;;12.87;9.77;;;;;;;;;;4970639;28;20780;-73
2022/02/09 21:54:53;;;;;;;9.43;6.90;;;;;;;;;;4972038;28;20716;-72
2022/02/09 22:19:55;;;;;;;10.97;7.93;;;;;;;;;;4954484;28;20226;-73
2022/02/09 22:27:36;;;;;;;12.30;9.30;;;;;;;;;;4952041;28;20603;-73
2022/02/09 22:49:18;;;;;;;14.97;11.23;;;;;;;;;;4959142;28;20613;-73
2022/02/09 22:56:58;;;;;;;15.03;11.07;;;;;;;;;;4976311;28;20222;-72
2022/02/09 22:59:35;;;;;;;13.63;10.90;;;;;;;;;;4958809;28;20237;-72
2022/02/09 23:02:09;;;;;;;14.30;10.67;;;;;;;;;;4958940;28;20268;-73
2022/02/09 23:04:44;;;;;;;15.63;10.77;;;;;;;;;;4958552;28;20221;-74
2022/02/09 23:07:20;;;;;;;12.90;10.43;;;;;;;;;;4967547;28;20234;-72
2022/02/09 23:12:29;;;;;;;16.10;11.20;;;;;;;;;;4948199;28;20214;-73
2022/02/09 23:23:46;;;;;;;16.13;11.37;;;;;;;;;;4960186;28;20230;-75
